sensor_id;sensor_type;location;lat;lon;timestamp;P1;durP1;ratioP1;P2;durP2;ratioP2
34585;SDS011;20816;50.950;11.108;2023-08-21T00:01:31;12.95;;;8.50;;
34585;SDS011;20816;50.950;11.108;2023-08-21T00:03:57;11.68;;;7.75;;
34585;SDS011;20816;50.950;11.108;2023-08-21T00:06:24;10.63;;;7.25;;
34585;SDS011;20816;50.950;11.108;2023-08-21T00:08:51;9.23;;;6.90;;
34585;SDS011;20816;50.950;11.108;2023-08-21T00:11:17;14.02;;;7.70;;
34585;SDS011;20816;50.950;11.108;2023-08-21T00:13:44;11.07;;;6.97;;
34585;SDS011;20816;50.950;11.108;2023-08-21T00:16:14;11.10;;;7.47;;
34585;SDS011;20816;50.950;11.108;2023-08-21T00:18:41;14.32;;;7.75;;
34585;SDS011;20816;50.950;11.108;2023-08-21T00:21:07;11.82;;;6.65;;
34585;SDS011;20816;50.950;11.108;2023-08-21T00:23:34;12.90;;;8.50;;
34585;SDS011;20816;50.950;11.108;2023-08-21T00:26:01;12.15;;;7.43;;
34585;SDS011;20816;50.950;11.108;2023-08-21T00:28:28;10.32;;;7.80;;
34585;SDS011;20816;50.950;11.108;2023-08-21T00:30:59;15.27;;;9.38;;
34585;SDS011;20816;50.950;11.108;2023-08-21T00:33:27;12.35;;;8.45;;
34585;SDS011;20816;50.950;11.108;2023-08-21T00:35:55;13.25;;;8.68;;
34585;SDS011;20816;50.950;11.108;2023-08-21T00:38:21;14.30;;;9.45;;
34585;SDS011;20816;50.950;11.108;2023-08-21T00:40:49;14.63;;;9.82;;
34585;SDS011;20816;50.950;11.108;2023-08-21T00:43:17;17.45;;;9.77;;
34585;SDS011;20816;50.950;11.108;2023-08-21T00:45:44;13.95;;;9.30;;
34585;SDS011;20816;50.950;11.108;2023-08-21T00:48:13;12.48;;;8.63;;
34585;SDS011;20816;50.950;11.108;2023-08-21T00:50:40;12.57;;;8.60;;
34585;SDS011;20816;50.950;11.108;2023-08-21T00:53:08;13.48;;;8.18;;
34585;SDS011;20816;50.950;11.108;2023-08-21T00:55:35;15.18;;;8.10;;
34585;SDS011;20816;50.950;11.108;2023-08-21T00:58:03;17.15;;;8.68;;
34585;SDS011;20816;50.950;11.108;2023-08-21T01:00:31;12.02;;;8.50;;
34585;SDS011;20816;50.950;11.108;2023-08-21T01:03:00;13.07;;;8.70;;
34585;SDS011;20816;50.950;11.108;2023-08-21T01:05:27;14.82;;;8.70;;
34585;SDS011;20816;50.950;11.108;2023-08-21T01:08:04;11.45;;;8.05;;
34585;SDS011;20816;50.950;11.108;2023-08-21T01:10:41;22.90;;;9.80;;
34585;SDS011;20816;50.950;11.108;2023-08-21T01:16:03;14.75;;;10.50;;
34585;SDS011;20816;50.950;11.108;2023-08-21T01:18:33;14.15;;;9.90;;
34585;SDS011;20816;50.950;11.108;2023-08-21T01:21:02;13.18;;;7.82;;
34585;SDS011;20816;50.950;11.108;2023-08-21T01:23:36;13.15;;;9.02;;
34585;SDS011;20816;50.950;11.108;2023-08-21T01:26:04;15.52;;;9.05;;
34585;SDS011;20816;50.950;11.108;2023-08-21T01:28:32;14.38;;;9.27;;
34585;SDS011;20816;50.950;11.108;2023-08-21T01:34:01;12.13;;;8.73;;
34585;SDS011;20816;50.950;11.108;2023-08-21T01:36:32;14.52;;;8.65;;
34585;SDS011;20816;50.950;11.108;2023-08-21T01:39:00;15.38;;;9.70;;
34585;SDS011;20816;50.950;11.108;2023-08-21T01:41:27;13.80;;;8.40;;
34585;SDS011;20816;50.950;11.108;2023-08-21T01:43:54;13.95;;;9.00;;
34585;SDS011;20816;50.950;11.108;2023-08-21T01:46:21;12.40;;;8.45;;
34585;SDS011;20816;50.950;11.108;2023-08-21T01:48:48;12.65;;;8.35;;
34585;SDS011;20816;50.950;11.108;2023-08-21T01:51:14;12.30;;;7.70;;
34585;SDS011;20816;50.950;11.108;2023-08-21T01:53:41;12.27;;;8.48;;
34585;SDS011;20816;50.950;11.108;2023-08-21T01:56:08;12.98;;;8.15;;
34585;SDS011;20816;50.950;11.108;2023-08-21T01:58:34;14.40;;;8.77;;
34585;SDS011;20816;50.950;11.108;2023-08-21T02:01:01;12.27;;;8.15;;
34585;SDS011;20816;50.950;11.108;2023-08-21T02:03:28;13.02;;;8.85;;
34585;SDS011;20816;50.950;11.108;2023-08-21T02:05:57;14.13;;;8.65;;
34585;SDS011;20816;50.950;11.108;2023-08-21T02:08:26;14.43;;;8.38;;
34585;SDS011;20816;50.950;11.108;2023-08-21T02:10:58;14.18;;;9.27;;
34585;SDS011;20816;50.950;11.108;2023-08-21T02:13:25;14.52;;;8.75;;
34585;SDS011;20816;50.950;11.108;2023-08-21T02:15:52;14.90;;;8.25;;
34585;SDS011;20816;50.950;11.108;2023-08-21T02:18:18;17.90;;;9.52;;
34585;SDS011;20816;50.950;11.108;2023-08-21T02:20:46;12.52;;;8.13;;
34585;SDS011;20816;50.950;11.108;2023-08-21T02:23:13;14.18;;;9.15;;
34585;SDS011;20816;50.950;11.108;2023-08-21T02:25:40;13.68;;;9.00;;
34585;SDS011;20816;50.950;11.108;2023-08-21T02:28:07;13.80;;;9.32;;
34585;SDS011;20816;50.950;11.108;2023-08-21T02:30:34;12.55;;;8.00;;
34585;SDS011;20816;50.950;11.108;2023-08-21T02:33:00;13.00;;;8.57;;
34585;SDS011;20816;50.950;11.108;2023-08-21T02:35:27;11.05;;;8.02;;
34585;SDS011;20816;50.950;11.108;2023-08-21T02:37:54;12.38;;;8.13;;
34585;SDS011;20816;50.950;11.108;2023-08-21T02:40:20;13.70;;;8.65;;
34585;SDS011;20816;50.950;11.108;2023-08-21T02:42:47;14.20;;;8.13;;
34585;SDS011;20816;50.950;11.108;2023-08-21T02:45:14;11.15;;;8.02;;
34585;SDS011;20816;50.950;11.108;2023-08-21T02:47:40;14.38;;;8.60;;
34585;SDS011;20816;50.950;11.108;2023-08-21T02:50:08;11.25;;;7.82;;
34585;SDS011;20816;50.950;11.108;2023-08-21T02:52:36;12.63;;;8.90;;
34585;SDS011;20816;50.950;11.108;2023-08-21T02:55:04;11.63;;;7.90;;
34585;SDS011;20816;50.950;11.108;2023-08-21T02:57:31;10.50;;;7.40;;
34585;SDS011;20816;50.950;11.108;2023-08-21T02:59:57;12.23;;;7.18;;
34585;SDS011;20816;50.950;11.108;2023-08-21T03:02:24;13.50;;;8.13;;
34585;SDS011;20816;50.950;11.108;2023-08-21T03:04:51;14.55;;;9.55;;
34585;SDS011;20816;50.950;11.108;2023-08-21T03:07:18;12.75;;;7.45;;
34585;SDS011;20816;50.950;11.108;2023-08-21T03:09:45;13.90;;;7.60;;
34585;SDS011;20816;50.950;11.108;2023-08-21T03:12:15;12.80;;;7.85;;
34585;SDS011;20816;50.950;11.108;2023-08-21T03:14:42;11.43;;;7.10;;
34585;SDS011;20816;50.950;11.108;2023-08-21T03:17:09;15.45;;;8.90;;
34585;SDS011;20816;50.950;11.108;2023-08-21T03:19:36;20.00;;;8.77;;
34585;SDS011;20816;50.950;11.108;2023-08-21T03:22:03;11.40;;;7.38;;
34585;SDS011;20816;50.950;11.108;2023-08-21T03:24:29;12.82;;;8.65;;
34585;SDS011;20816;50.950;11.108;2023-08-21T03:26:56;13.38;;;8.43;;
34585;SDS011;20816;50.950;11.108;2023-08-21T03:29:23;11.77;;;8.10;;
34585;SDS011;20816;50.950;11.108;2023-08-21T03:31:50;13.38;;;8.80;;
34585;SDS011;20816;50.950;11.108;2023-08-21T03:34:19;13.07;;;8.00;;
34585;SDS011;20816;50.950;11.108;2023-08-21T03:36:45;13.88;;;9.32;;
34585;SDS011;20816;50.950;11.108;2023-08-21T03:39:12;14.57;;;8.95;;
34585;SDS011;20816;50.950;11.108;2023-08-21T03:41:39;14.88;;;9.68;;
34585;SDS011;20816;50.950;11.108;2023-08-21T03:44:05;14.73;;;9.80;;
34585;SDS011;20816;50.950;11.108;2023-08-21T03:46:32;18.02;;;9.95;;
34585;SDS011;20816;50.950;11.108;2023-08-21T03:48:59;14.93;;;10.20;;
34585;SDS011;20816;50.950;11.108;2023-08-21T03:51:26;15.95;;;8.48;;
34585;SDS011;20816;50.950;11.108;2023-08-21T03:53:52;13.07;;;8.90;;
34585;SDS011;20816;50.950;11.108;2023-08-21T03:56:19;13.85;;;8.18;;
34585;SDS011;20816;50.950;11.108;2023-08-21T03:58:46;11.68;;;8.50;;
34585;SDS011;20816;50.950;11.108;2023-08-21T04:01:14;14.90;;;9.15;;
34585;SDS011;20816;50.950;11.108;2023-08-21T04:03:42;13.55;;;8.93;;
34585;SDS011;20816;50.950;11.108;2023-08-21T04:06:09;16.38;;;10.20;;
34585;SDS011;20816;50.950;11.108;2023-08-21T04:08:36;15.43;;;7.63;;
34585;SDS011;20816;50.950;11.108;2023-08-21T04:11:02;12.80;;;9.02;;
34585;SDS011;20816;50.950;11.108;2023-08-21T04:13:30;16.15;;;8.70;;
34585;SDS011;20816;50.950;11.108;2023-08-21T04:15:57;17.05;;;8.60;;
34585;SDS011;20816;50.950;11.108;2023-08-21T04:18:24;16.33;;;9.18;;
34585;SDS011;20816;50.950;11.108;2023-08-21T04:21:06;12.73;;;7.28;;
34585;SDS011;20816;50.950;11.108;2023-08-21T04:23:33;14.25;;;7.85;;
34585;SDS011;20816;50.950;11.108;2023-08-21T04:26:00;14.23;;;8.77;;
34585;SDS011;20816;50.950;11.108;2023-08-21T04:28:31;12.30;;;8.38;;
34585;SDS011;20816;50.950;11.108;2023-08-21T04:30:59;14.27;;;9.40;;
34585;SDS011;20816;50.950;11.108;2023-08-21T04:33:27;13.52;;;8.15;;
34585;SDS011;20816;50.950;11.108;2023-08-21T04:35:55;13.90;;;8.77;;
34585;SDS011;20816;50.950;11.108;2023-08-21T04:38:22;17.30;;;8.80;;
34585;SDS011;20816;50.950;11.108;2023-08-21T04:40:48;13.68;;;8.75;;
34585;SDS011;20816;50.950;11.108;2023-08-21T04:43:15;13.18;;;8.80;;
34585;SDS011;20816;50.950;11.108;2023-08-21T04:45:47;16.02;;;8.68;;
34585;SDS011;20816;50.950;11.108;2023-08-21T04:48:15;14.80;;;10.10;;
34585;SDS011;20816;50.950;11.108;2023-08-21T04:50:42;13.27;;;7.88;;
34585;SDS011;20816;50.950;11.108;2023-08-21T04:53:09;10.63;;;7.85;;
34585;SDS011;20816;50.950;11.108;2023-08-21T04:55:35;14.50;;;8.25;;
34585;SDS011;20816;50.950;11.108;2023-08-21T04:58:03;11.25;;;8.95;;
34585;SDS011;20816;50.950;11.108;2023-08-21T05:00:30;12.88;;;8.55;;
34585;SDS011;20816;50.950;11.108;2023-08-21T05:02:57;14.25;;;8.85;;
34585;SDS011;20816;50.950;11.108;2023-08-21T05:05:24;18.40;;;11.02;;
34585;SDS011;20816;50.950;11.108;2023-08-21T05:07:54;15.25;;;9.10;;
34585;SDS011;20816;50.950;11.108;2023-08-21T05:10:21;14.75;;;10.63;;
34585;SDS011;20816;50.950;11.108;2023-08-21T05:12:47;16.63;;;9.88;;
34585;SDS011;20816;50.950;11.108;2023-08-21T05:15:14;17.48;;;10.77;;
34585;SDS011;20816;50.950;11.108;2023-08-21T05:17:41;20.25;;;11.48;;
34585;SDS011;20816;50.950;11.108;2023-08-21T05:20:08;17.23;;;11.00;;
34585;SDS011;20816;50.950;11.108;2023-08-21T05:22:35;17.30;;;10.25;;
34585;SDS011;20816;50.950;11.108;2023-08-21T05:25:02;20.98;;;11.63;;
34585;SDS011;20816;50.950;11.108;2023-08-21T05:27:29;21.10;;;10.57;;
34585;SDS011;20816;50.950;11.108;2023-08-21T05:29:56;19.48;;;11.05;;
34585;SDS011;20816;50.950;11.108;2023-08-21T05:32:22;19.05;;;10.35;;
34585;SDS011;20816;50.950;11.108;2023-08-21T05:34:49;21.98;;;13.05;;
34585;SDS011;20816;50.950;11.108;2023-08-21T05:37:16;20.55;;;11.75;;
34585;SDS011;20816;50.950;11.108;2023-08-21T05:39:43;19.58;;;10.85;;
34585;SDS011;20816;50.950;11.108;2023-08-21T05:42:10;18.20;;;11.90;;
34585;SDS011;20816;50.950;11.108;2023-08-21T05:44:36;17.85;;;11.48;;
34585;SDS011;20816;50.950;11.108;2023-08-21T05:47:03;17.98;;;11.48;;
34585;SDS011;20816;50.950;11.108;2023-08-21T05:49:30;15.63;;;10.63;;
34585;SDS011;20816;50.950;11.108;2023-08-21T05:51:57;15.40;;;9.23;;
34585;SDS011;20816;50.950;11.108;2023-08-21T05:54:25;14.32;;;9.77;;
34585;SDS011;20816;50.950;11.108;2023-08-21T05:56:52;15.68;;;9.88;;
34585;SDS011;20816;50.950;11.108;2023-08-21T05:59:32;13.00;;;9.02;;
34585;SDS011;20816;50.950;11.108;2023-08-21T06:01:59;13.52;;;8.57;;
34585;SDS011;20816;50.950;11.108;2023-08-21T06:04:26;16.75;;;9.27;;
34585;SDS011;20816;50.950;11.108;2023-08-21T06:06:54;16.98;;;7.95;;
34585;SDS011;20816;50.950;11.108;2023-08-21T06:09:21;12.18;;;7.95;;
34585;SDS011;20816;50.950;11.108;2023-08-21T06:11:48;13.02;;;8.02;;
34585;SDS011;20816;50.950;11.108;2023-08-21T06:14:15;13.55;;;7.97;;
34585;SDS011;20816;50.950;11.108;2023-08-21T06:16:42;10.80;;;7.70;;
34585;SDS011;20816;50.950;11.108;2023-08-21T06:19:11;15.75;;;8.43;;
34585;SDS011;20816;50.950;11.108;2023-08-21T06:21:38;14.82;;;7.82;;
34585;SDS011;20816;50.950;11.108;2023-08-21T06:24:05;10.93;;;7.75;;
34585;SDS011;20816;50.950;11.108;2023-08-21T06:26:32;11.68;;;7.95;;
34585;SDS011;20816;50.950;11.108;2023-08-21T06:28:58;12.70;;;7.57;;
34585;SDS011;20816;50.950;11.108;2023-08-21T06:31:25;9.25;;;6.95;;
34585;SDS011;20816;50.950;11.108;2023-08-21T06:33:52;12.05;;;6.88;;
34585;SDS011;20816;50.950;11.108;2023-08-21T06:36:18;10.55;;;7.32;;
34585;SDS011;20816;50.950;11.108;2023-08-21T06:38:45;11.63;;;7.25;;
34585;SDS011;20816;50.950;11.108;2023-08-21T06:41:12;12.73;;;7.20;;
34585;SDS011;20816;50.950;11.108;2023-08-21T06:43:38;14.60;;;6.35;;
34585;SDS011;20816;50.950;11.108;2023-08-21T06:46:10;10.50;;;6.40;;
34585;SDS011;20816;50.950;11.108;2023-08-21T06:48:38;11.43;;;5.47;;
34585;SDS011;20816;50.950;11.108;2023-08-21T06:51:07;7.60;;;6.00;;
34585;SDS011;20816;50.950;11.108;2023-08-21T06:53:34;15.63;;;6.10;;
34585;SDS011;20816;50.950;11.108;2023-08-21T06:56:00;11.30;;;7.25;;
34585;SDS011;20816;50.950;11.108;2023-08-21T06:58:27;9.43;;;6.93;;
34585;SDS011;20816;50.950;11.108;2023-08-21T07:00:54;12.07;;;7.13;;
34585;SDS011;20816;50.950;11.108;2023-08-21T07:03:22;8.98;;;6.50;;
34585;SDS011;20816;50.950;11.108;2023-08-21T07:05:55;9.60;;;7.35;;
34585;SDS011;20816;50.950;11.108;2023-08-21T07:08:23;10.68;;;6.82;;
34585;SDS011;20816;50.950;11.108;2023-08-21T07:10:50;7.72;;;5.40;;
34585;SDS011;20816;50.950;11.108;2023-08-21T07:13:18;8.50;;;6.05;;
34585;SDS011;20816;50.950;11.108;2023-08-21T07:15:45;9.40;;;6.20;;
34585;SDS011;20816;50.950;11.108;2023-08-21T07:18:13;9.63;;;6.07;;
34585;SDS011;20816;50.950;11.108;2023-08-21T07:20:40;13.73;;;4.88;;
34585;SDS011;20816;50.950;11.108;2023-08-21T07:23:06;5.97;;;4.22;;
34585;SDS011;20816;50.950;11.108;2023-08-21T07:25:33;8.30;;;4.53;;
34585;SDS011;20816;50.950;11.108;2023-08-21T07:28:00;7.57;;;3.85;;
34585;SDS011;20816;50.950;11.108;2023-08-21T07:30:27;6.95;;;4.90;;
34585;SDS011;20816;50.950;11.108;2023-08-21T07:32:54;4.93;;;4.30;;
34585;SDS011;20816;50.950;11.108;2023-08-21T07:35:21;6.03;;;4.13;;
34585;SDS011;20816;50.950;11.108;2023-08-21T07:37:49;5.40;;;4.38;;
34585;SDS011;20816;50.950;11.108;2023-08-21T07:40:16;4.38;;;3.15;;
34585;SDS011;20816;50.950;11.108;2023-08-21T07:42:42;4.43;;;3.55;;
34585;SDS011;20816;50.950;11.108;2023-08-21T07:45:09;4.35;;;3.92;;
34585;SDS011;20816;50.950;11.108;2023-08-21T07:47:37;4.57;;;3.95;;
34585;SDS011;20816;50.950;11.108;2023-08-21T07:50:05;5.65;;;4.50;;
34585;SDS011;20816;50.950;11.108;2023-08-21T07:52:32;5.43;;;4.22;;
34585;SDS011;20816;50.950;11.108;2023-08-21T07:54:59;5.05;;;3.58;;
34585;SDS011;20816;50.950;11.108;2023-08-21T07:57:27;5.57;;;3.75;;
34585;SDS011;20816;50.950;11.108;2023-08-21T07:59:55;10.38;;;5.22;;
34585;SDS011;20816;50.950;11.108;2023-08-21T08:02:23;7.30;;;4.22;;
34585;SDS011;20816;50.950;11.108;2023-08-21T08:04:49;5.05;;;4.40;;
34585;SDS011;20816;50.950;11.108;2023-08-21T08:07:16;5.72;;;3.70;;
34585;SDS011;20816;50.950;11.108;2023-08-21T08:09:43;6.05;;;4.28;;
34585;SDS011;20816;50.950;11.108;2023-08-21T08:12:10;7.43;;;4.10;;
34585;SDS011;20816;50.950;11.108;2023-08-21T08:14:37;3.55;;;2.92;;
34585;SDS011;20816;50.950;11.108;2023-08-21T08:17:10;5.72;;;3.10;;
34585;SDS011;20816;50.950;11.108;2023-08-21T08:19:37;6.68;;;3.90;;
34585;SDS011;20816;50.950;11.108;2023-08-21T08:22:04;3.85;;;3.45;;
34585;SDS011;20816;50.950;11.108;2023-08-21T08:24:30;4.32;;;3.72;;
34585;SDS011;20816;50.950;11.108;2023-08-21T08:26:57;6.88;;;3.35;;
34585;SDS011;20816;50.950;11.108;2023-08-21T08:29:24;8.75;;;4.32;;
34585;SDS011;20816;50.950;11.108;2023-08-21T08:31:50;5.63;;;4.38;;
34585;SDS011;20816;50.950;11.108;2023-08-21T08:34:17;5.18;;;4.10;;
34585;SDS011;20816;50.950;11.108;2023-08-21T08:36:46;4.68;;;3.67;;
34585;SDS011;20816;50.950;11.108;2023-08-21T08:39:13;6.95;;;3.85;;
34585;SDS011;20816;50.950;11.108;2023-08-21T08:44:36;5.30;;;4.38;;
34585;SDS011;20816;50.950;11.108;2023-08-21T08:47:04;7.13;;;4.32;;
34585;SDS011;20816;50.950;11.108;2023-08-21T08:49:31;5.25;;;3.72;;
34585;SDS011;20816;50.950;11.108;2023-08-21T08:51:58;6.38;;;4.13;;
34585;SDS011;20816;50.950;11.108;2023-08-21T08:54:26;6.68;;;4.70;;
34585;SDS011;20816;50.950;11.108;2023-08-21T08:56:53;5.75;;;4.18;;
34585;SDS011;20816;50.950;11.108;2023-08-21T08:59:20;5.18;;;3.90;;
34585;SDS011;20816;50.950;11.108;2023-08-21T09:01:47;4.95;;;3.70;;
34585;SDS011;20816;50.950;11.108;2023-08-21T09:04:14;4.97;;;3.78;;
34585;SDS011;20816;50.950;11.108;2023-08-21T09:06:41;4.40;;;4.00;;
34585;SDS011;20816;50.950;11.108;2023-08-21T09:09:08;7.30;;;4.38;;
34585;SDS011;20816;50.950;11.108;2023-08-21T09:11:42;5.50;;;4.18;;
34585;SDS011;20816;50.950;11.108;2023-08-21T09:14:10;5.25;;;4.60;;
34585;SDS011;20816;50.950;11.108;2023-08-21T09:16:37;5.07;;;4.35;;
34585;SDS011;20816;50.950;11.108;2023-08-21T09:19:04;6.05;;;4.28;;
34585;SDS011;20816;50.950;11.108;2023-08-21T09:21:31;6.55;;;3.92;;
34585;SDS011;20816;50.950;11.108;2023-08-21T09:23:59;4.28;;;3.33;;
34585;SDS011;20816;50.950;11.108;2023-08-21T09:26:27;4.85;;;3.95;;
34585;SDS011;20816;50.950;11.108;2023-08-21T09:28:59;4.97;;;4.10;;
34585;SDS011;20816;50.950;11.108;2023-08-21T09:31:31;5.63;;;4.18;;
34585;SDS011;20816;50.950;11.108;2023-08-21T09:33:59;7.72;;;4.25;;
34585;SDS011;20816;50.950;11.108;2023-08-21T09:36:34;7.05;;;4.15;;
34585;SDS011;20816;50.950;11.108;2023-08-21T09:39:02;6.35;;;3.90;;
34585;SDS011;20816;50.950;11.108;2023-08-21T09:41:30;8.55;;;4.38;;
34585;SDS011;20816;50.950;11.108;2023-08-21T09:43:59;6.28;;;4.28;;
34585;SDS011;20816;50.950;11.108;2023-08-21T09:46:27;4.95;;;4.15;;
34585;SDS011;20816;50.950;11.108;2023-08-21T09:48:55;7.43;;;4.93;;
34585;SDS011;20816;50.950;11.108;2023-08-21T09:51:22;4.55;;;3.55;;
34585;SDS011;20816;50.950;11.108;2023-08-21T09:53:49;7.22;;;3.97;;
34585;SDS011;20816;50.950;11.108;2023-08-21T09:56:17;5.88;;;3.95;;
34585;SDS011;20816;50.950;11.108;2023-08-21T09:58:47;4.50;;;4.10;;
34585;SDS011;20816;50.950;11.108;2023-08-21T10:01:15;5.45;;;3.60;;
34585;SDS011;20816;50.950;11.108;2023-08-21T10:03:44;4.20;;;3.80;;
34585;SDS011;20816;50.950;11.108;2023-08-21T10:06:15;5.00;;;3.90;;
34585;SDS011;20816;50.950;11.108;2023-08-21T10:08:48;4.97;;;3.53;;
34585;SDS011;20816;50.950;11.108;2023-08-21T10:11:20;4.88;;;3.78;;
34585;SDS011;20816;50.950;11.108;2023-08-21T10:13:47;4.05;;;3.42;;
34585;SDS011;20816;50.950;11.108;2023-08-21T10:16:17;6.28;;;3.60;;
34585;SDS011;20816;50.950;11.108;2023-08-21T10:18:45;5.00;;;4.32;;
34585;SDS011;20816;50.950;11.108;2023-08-21T10:21:16;5.20;;;3.75;;
34585;SDS011;20816;50.950;11.108;2023-08-21T10:23:48;4.00;;;3.60;;
34585;SDS011;20816;50.950;11.108;2023-08-21T10:26:20;5.25;;;3.75;;
34585;SDS011;20816;50.950;11.108;2023-08-21T10:28:54;6.63;;;3.88;;
34585;SDS011;20816;50.950;11.108;2023-08-21T10:31:29;4.57;;;3.78;;
34585;SDS011;20816;50.950;11.108;2023-08-21T10:33:58;5.82;;;3.72;;
34585;SDS011;20816;50.950;11.108;2023-08-21T10:44:33;5.82;;;4.00;;
34585;SDS011;20816;50.950;11.108;2023-08-21T10:47:12;4.18;;;3.40;;
34585;SDS011;20816;50.950;11.108;2023-08-21T10:49:40;4.07;;;3.53;;
34585;SDS011;20816;50.950;11.108;2023-08-21T10:52:07;6.47;;;3.70;;
34585;SDS011;20816;50.950;11.108;2023-08-21T10:54:45;5.55;;;2.97;;
34585;SDS011;20816;50.950;11.108;2023-08-21T10:57:13;3.58;;;3.03;;
34585;SDS011;20816;50.950;11.108;2023-08-21T11:00:00;3.80;;;3.42;;
34585;SDS011;20816;50.950;11.108;2023-08-21T11:02:36;5.30;;;3.50;;
34585;SDS011;20816;50.950;11.108;2023-08-21T11:05:05;4.22;;;3.30;;
34585;SDS011;20816;50.950;11.108;2023-08-21T11:07:47;4.03;;;2.75;;
34585;SDS011;20816;50.950;11.108;2023-08-21T11:12:56;5.22;;;3.20;;
34585;SDS011;20816;50.950;11.108;2023-08-21T11:15:26;3.10;;;2.47;;
34585;SDS011;20816;50.950;11.108;2023-08-21T11:18:02;2.85;;;2.30;;
34585;SDS011;20816;50.950;11.108;2023-08-21T11:20:30;4.20;;;2.70;;
34585;SDS011;20816;50.950;11.108;2023-08-21T11:23:01;5.60;;;3.55;;
34585;SDS011;20816;50.950;11.108;2023-08-21T11:25:33;4.57;;;3.03;;
34585;SDS011;20816;50.950;11.108;2023-08-21T11:28:04;4.70;;;2.95;;
34585;SDS011;20816;50.950;11.108;2023-08-21T11:30:31;3.55;;;3.25;;
34585;SDS011;20816;50.950;11.108;2023-08-21T11:33:05;3.88;;;3.13;;
34585;SDS011;20816;50.950;11.108;2023-08-21T11:35:33;5.20;;;2.72;;
34585;SDS011;20816;50.950;11.108;2023-08-21T11:37:59;5.75;;;3.03;;
34585;SDS011;20816;50.950;11.108;2023-08-21T11:40:26;3.28;;;2.63;;
34585;SDS011;20816;50.950;11.108;2023-08-21T11:42:53;2.88;;;2.58;;
34585;SDS011;20816;50.950;11.108;2023-08-21T11:45:27;2.80;;;2.45;;
34585;SDS011;20816;50.950;11.108;2023-08-21T11:47:55;6.60;;;2.40;;
34585;SDS011;20816;50.950;11.108;2023-08-21T11:50:22;2.88;;;2.40;;
34585;SDS011;20816;50.950;11.108;2023-08-21T11:52:52;3.30;;;2.58;;
34585;SDS011;20816;50.950;11.108;2023-08-21T11:55:19;5.45;;;3.42;;
34585;SDS011;20816;50.950;11.108;2023-08-21T11:57:50;2.78;;;2.40;;
34585;SDS011;20816;50.950;11.108;2023-08-21T12:00:18;3.95;;;2.65;;
34585;SDS011;20816;50.950;11.108;2023-08-21T12:02:58;2.80;;;2.28;;
34585;SDS011;20816;50.950;11.108;2023-08-21T12:05:27;11.15;;;3.05;;
34585;SDS011;20816;50.950;11.108;2023-08-21T12:07:54;2.38;;;2.17;;
34585;SDS011;20816;50.950;11.108;2023-08-21T12:10:25;3.20;;;2.67;;
34585;SDS011;20816;50.950;11.108;2023-08-21T12:12:55;4.47;;;2.20;;
34585;SDS011;20816;50.950;11.108;2023-08-21T12:15:23;3.78;;;2.42;;
34585;SDS011;20816;50.950;11.108;2023-08-21T12:17:50;3.42;;;2.30;;
34585;SDS011;20816;50.950;11.108;2023-08-21T12:20:17;5.40;;;2.85;;
34585;SDS011;20816;50.950;11.108;2023-08-21T12:22:44;3.53;;;2.40;;
34585;SDS011;20816;50.950;11.108;2023-08-21T12:25:11;3.30;;;2.78;;
34585;SDS011;20816;50.950;11.108;2023-08-21T12:27:39;5.75;;;2.80;;
34585;SDS011;20816;50.950;11.108;2023-08-21T12:30:07;3.47;;;2.55;;
34585;SDS011;20816;50.950;11.108;2023-08-21T12:32:34;2.67;;;1.90;;
34585;SDS011;20816;50.950;11.108;2023-08-21T12:35:00;3.55;;;2.05;;
34585;SDS011;20816;50.950;11.108;2023-08-21T12:37:27;2.97;;;2.67;;
34585;SDS011;20816;50.950;11.108;2023-08-21T12:39:54;2.42;;;2.22;;
34585;SDS011;20816;50.950;11.108;2023-08-21T12:42:21;4.00;;;2.95;;
34585;SDS011;20816;50.950;11.108;2023-08-21T12:44:48;3.63;;;2.85;;
34585;SDS011;20816;50.950;11.108;2023-08-21T12:47:15;2.95;;;2.58;;
34585;SDS011;20816;50.950;11.108;2023-08-21T12:49:41;4.35;;;2.88;;
34585;SDS011;20816;50.950;11.108;2023-08-21T12:52:09;3.10;;;2.38;;
34585;SDS011;20816;50.950;11.108;2023-08-21T12:54:38;6.40;;;2.85;;
34585;SDS011;20816;50.950;11.108;2023-08-21T12:57:06;2.88;;;2.00;;
34585;SDS011;20816;50.950;11.108;2023-08-21T12:59:34;3.70;;;2.30;;
34585;SDS011;20816;50.950;11.108;2023-08-21T13:02:01;6.22;;;2.53;;
34585;SDS011;20816;50.950;11.108;2023-08-21T13:04:28;2.65;;;2.10;;
34585;SDS011;20816;50.950;11.108;2023-08-21T13:06:55;4.32;;;2.58;;
34585;SDS011;20816;50.950;11.108;2023-08-21T13:09:22;3.08;;;2.50;;
34585;SDS011;20816;50.950;11.108;2023-08-21T13:11:51;3.25;;;2.20;;
34585;SDS011;20816;50.950;11.108;2023-08-21T13:14:18;3.35;;;2.15;;
34585;SDS011;20816;50.950;11.108;2023-08-21T13:16:45;3.15;;;2.45;;
34585;SDS011;20816;50.950;11.108;2023-08-21T13:19:12;3.58;;;2.50;;
34585;SDS011;20816;50.950;11.108;2023-08-21T13:21:41;3.22;;;2.88;;
34585;SDS011;20816;50.950;11.108;2023-08-21T13:24:08;2.10;;;1.83;;
34585;SDS011;20816;50.950;11.108;2023-08-21T13:26:35;2.88;;;2.00;;
34585;SDS011;20816;50.950;11.108;2023-08-21T13:29:01;3.45;;;2.80;;
34585;SDS011;20816;50.950;11.108;2023-08-21T13:31:28;6.35;;;2.53;;
34585;SDS011;20816;50.950;11.108;2023-08-21T13:33:55;2.50;;;2.10;;
34585;SDS011;20816;50.950;11.108;2023-08-21T13:36:22;3.70;;;2.47;;
34585;SDS011;20816;50.950;11.108;2023-08-21T13:38:51;2.75;;;2.33;;
34585;SDS011;20816;50.950;11.108;2023-08-21T13:41:18;3.95;;;2.92;;
34585;SDS011;20816;50.950;11.108;2023-08-21T13:43:45;3.30;;;2.58;;
34585;SDS011;20816;50.950;11.108;2023-08-21T13:46:11;2.40;;;1.83;;
34585;SDS011;20816;50.950;11.108;2023-08-21T13:48:39;2.63;;;2.25;;
34585;SDS011;20816;50.950;11.108;2023-08-21T13:51:05;2.60;;;2.40;;
34585;SDS011;20816;50.950;11.108;2023-08-21T13:53:33;3.53;;;1.90;;
34585;SDS011;20816;50.950;11.108;2023-08-21T13:55:59;3.65;;;2.22;;
34585;SDS011;20816;50.950;11.108;2023-08-21T13:58:26;2.40;;;2.20;;
34585;SDS011;20816;50.950;11.108;2023-08-21T14:00:53;2.35;;;2.05;;
34585;SDS011;20816;50.950;11.108;2023-08-21T14:03:22;3.80;;;2.58;;
34585;SDS011;20816;50.950;11.108;2023-08-21T14:05:48;5.38;;;2.30;;
34585;SDS011;20816;50.950;11.108;2023-08-21T14:08:15;2.13;;;1.92;;
34585;SDS011;20816;50.950;11.108;2023-08-21T14:10:42;1.70;;;1.60;;
34585;SDS011;20816;50.950;11.108;2023-08-21T14:13:09;5.03;;;2.38;;
34585;SDS011;20816;50.950;11.108;2023-08-21T14:15:36;3.72;;;2.08;;
34585;SDS011;20816;50.950;11.108;2023-08-21T14:18:03;2.80;;;1.90;;
34585;SDS011;20816;50.950;11.108;2023-08-21T14:20:31;3.63;;;2.17;;
34585;SDS011;20816;50.950;11.108;2023-08-21T14:22:58;3.15;;;1.80;;
34585;SDS011;20816;50.950;11.108;2023-08-21T14:25:25;4.80;;;2.38;;
34585;SDS011;20816;50.950;11.108;2023-08-21T14:27:52;2.78;;;2.03;;
34585;SDS011;20816;50.950;11.108;2023-08-21T14:30:18;3.30;;;1.80;;
34585;SDS011;20816;50.950;11.108;2023-08-21T14:32:47;3.20;;;2.10;;
34585;SDS011;20816;50.950;11.108;2023-08-21T14:35:13;1.95;;;1.80;;
34585;SDS011;20816;50.950;11.108;2023-08-21T14:37:40;2.72;;;1.98;;
34585;SDS011;20816;50.950;11.108;2023-08-21T14:40:07;2.75;;;1.95;;
34585;SDS011;20816;50.950;11.108;2023-08-21T14:42:35;4.68;;;2.22;;
34585;SDS011;20816;50.950;11.108;2023-08-21T14:45:03;3.50;;;2.00;;
34585;SDS011;20816;50.950;11.108;2023-08-21T14:47:31;2.75;;;1.55;;
34585;SDS011;20816;50.950;11.108;2023-08-21T14:49:58;2.47;;;2.08;;
34585;SDS011;20816;50.950;11.108;2023-08-21T14:52:25;4.90;;;2.03;;